This is the latest recevied weather packets stored in our database for station/object KC1OEK-13. If no packets are shown the sender has not sent any weather packets the latest 10 day(s).
| Time | Temp. | Humidity | Pressure | Rain* | Wind** | Luminosity | Snow |
|---|---|---|---|---|---|---|---|
| 1787767447 | 26.11° C | 63% | 1020.5 hPa | 0 mm | - | 241 W/m² | - |
| 1787767145 | 25.56° C | 59% | 1020.3 hPa | 0 mm | - | 198 W/m² | - |
| 1787766844 | 26.67° C | 59% | 1020.5 hPa | 0 mm | - | 841 W/m² | - |
| 1787766543 | 26.67° C | 59% | 1020.4 hPa | 0 mm | - | 725 W/m² | - |
| 1787766238 | 26.67° C | 59% | 1020.4 hPa | 0 mm | - | 663 W/m² | - |
| 1787765933 | 25° C | 62% | 1020.4 hPa | 0 mm | - | 789 W/m² | - |
| 1787765629 | 26.67° C | 63% | 1020.6 hPa | 0 mm | - | 785 W/m² | - |
| 1787765324 | 26.11° C | 63% | 1020.4 hPa | 0 mm | - | 831 W/m² | - |
| 1787765024 | 25° C | 66% | 1020.4 hPa | 0 mm | - | 855 W/m² | - |
| 1787764719 | 25.56° C | 63% | 1020.5 hPa | 0 mm | - | 225 W/m² | - |
| 1787764414 | 26.11° C | 67% | 1020.4 hPa | 0 mm | - | 707 W/m² | - |
| 1787764110 | 26.67° C | 60% | 1020.6 hPa | 0 mm | - | 511 W/m² | - |
| 1787763806 | 25.56° C | 62% | 1020.7 hPa | 0 mm | - | 747 W/m² | - |
| 1787763500 | 26.11° C | 62% | 1020.4 hPa | 0 mm | - | 778 W/m² | - |
| 1787763195 | 25° C | 66% | 1020.6 hPa | 0 mm | - | 868 W/m² | - |
| 1787762890 | 25.56° C | 62% | 1020.7 hPa | 0 mm | - | 784 W/m² | - |
| 1787762585 | 24.44° C | 66% | 1020.9 hPa | 0 mm | - | 284 W/m² | - |
| 1787762282 | 24.44° C | 67% | 1020.9 hPa | 0 mm | - | 858 W/m² | - |
| 1787761976 | 24.44° C | 67% | 1020.8 hPa | 0 mm | - | 897 W/m² | - |
| 1787761671 | 24.44° C | 68% | 1020.9 hPa | 0 mm | - | 334 W/m² | - |
| 1787761366 | 23.89° C | 69% | 1020.9 hPa | 0 mm | - | 291 W/m² | - |
| 1787761064 | 25.56° C | 65% | 1020.7 hPa | 0 mm | - | 703 W/m² | - |
| 1787760764 | 25° C | 66% | 1020.9 hPa | 0 mm | - | 917 W/m² | - |
| 1787760458 | 23.89° C | 69% | 1020.9 hPa | 0 mm | - | 920 W/m² | - |
| 1787760153 | 25° C | 64% | 1020.7 hPa | 0 mm | - | 847 W/m² | - |
* Rain latest hour (hover to see other rain measurements)
** Current wind speed in m/s (hover to see current wind gust speed)